Time;durP1;ratioP1;P1;durP2;ratioP2;P2;SDS_P1;SDS_P2;PMS_P1;PMS_P2;Temp;Humidity;BMP_temperature;BMP_pressure;BME280_temperature;BME280_humidity;BME280_pressure;Samples;Min_cycle;Max_cycle;Signal;HPM_P1;HPM_P2
2021/09/08 00:01:17;;;;;;;0.10;0.10;;;9.90;69.60;;;;;;5076093;28;20031;-73
2021/09/08 00:03:43;;;;;;;0.00;0.00;;;9.90;69.70;;;;;;5075577;28;20572;-73
2021/09/08 00:06:09;;;;;;;0.10;0.10;;;9.90;69.80;;;;;;5074810;28;20021;-73
2021/09/08 00:08:35;;;;;;;0.10;0.10;;;9.80;69.80;;;;;;5075282;28;20024;-73
2021/09/08 00:11:01;;;;;;;0.10;0.10;;;9.80;69.80;;;;;;5074654;28;20072;-73
2021/09/08 00:13:29;;;;;;;0.10;0.10;;;9.80;69.80;;;;;;5056938;28;20037;-73
2021/09/08 00:15:55;;;;;;;0.10;0.10;;;9.90;70.00;;;;;;5074625;28;20044;-73
2021/09/08 00:18:20;;;;;;;0.10;0.10;;;9.80;70.00;;;;;;5074915;28;20405;-73
2021/09/08 00:20:46;;;;;;;0.10;0.10;;;9.80;70.00;;;;;;5074556;28;20397;-73
2021/09/08 00:23:12;;;;;;;0.00;0.00;;;9.80;69.90;;;;;;5074818;28;20102;-73
2021/09/08 00:25:37;;;;;;;0.10;0.10;;;9.80;69.90;;;;;;5074585;28;20436;-73
2021/09/08 00:28:03;;;;;;;0.10;0.10;;;9.80;70.00;;;;;;5075145;28;20033;-73
2021/09/08 00:30:29;;;;;;;0.10;0.10;;;9.80;69.90;;;;;;5074576;28;20074;-74
2021/09/08 00:32:55;;;;;;;0.10;0.10;;;9.80;70.00;;;;;;5075584;28;20021;-73
2021/09/08 00:35:20;;;;;;;0.00;0.00;;;9.80;70.00;;;;;;5074291;28;20028;-73
2021/09/08 00:37:46;;;;;;;0.10;0.10;;;9.80;70.10;;;;;;5074511;28;20111;-73
2021/09/08 00:40:12;;;;;;;0.00;0.00;;;9.80;70.00;;;;;;5073992;28;20032;-73
2021/09/08 00:42:38;;;;;;;0.10;0.10;;;9.70;69.90;;;;;;5074176;28;20029;-73
2021/09/08 00:45:04;;;;;;;0.10;0.10;;;9.70;70.00;;;;;;5074082;28;20493;-73
2021/09/08 00:47:30;;;;;;;0.10;0.10;;;9.70;69.90;;;;;;5073995;28;20045;-73
2021/09/08 00:49:56;;;;;;;0.10;0.10;;;9.70;69.90;;;;;;5073986;28;20024;-73
2021/09/08 00:52:22;;;;;;;0.10;0.10;;;9.70;69.90;;;;;;5074072;28;20021;-73
2021/09/08 00:54:49;;;;;;;0.10;0.10;;;9.70;70.00;;;;;;5074141;28;20104;-73
2021/09/08 00:57:16;;;;;;;0.10;0.10;;;9.70;70.10;;;;;;5073859;28;20453;-73
2021/09/08 00:59:43;;;;;;;0.10;0.10;;;9.80;70.30;;;;;;5073848;28;20037;-73
2021/09/08 01:02:09;;;;;;;0.10;0.10;;;9.70;70.20;;;;;;5074977;28;20488;-73
2021/09/08 01:04:35;;;;;;;0.10;0.10;;;9.70;70.20;;;;;;5073779;28;20035;-73
2021/09/08 01:07:06;;;;;;;0.10;0.10;;;9.70;70.20;;;;;;5073674;28;20441;-73
2021/09/08 01:09:32;;;;;;;0.10;0.10;;;9.70;70.30;;;;;;5073691;28;20082;-74
2021/09/08 01:11:58;;;;;;;0.05;0.05;;;9.70;70.30;;;;;;5073421;28;20407;-73
2021/09/08 01:14:24;;;;;;;0.00;0.00;;;9.60;70.30;;;;;;5055977;28;20056;-73
2021/09/08 01:16:56;;;;;;;0.05;0.05;;;9.70;70.40;;;;;;5073467;28;20469;-73
2021/09/08 01:19:23;;;;;;;0.00;0.00;;;9.60;70.60;;;;;;5074308;28;20037;-73
2021/09/08 01:21:48;;;;;;;0.00;0.00;;;9.60;70.60;;;;;;5073434;28;20214;-73
2021/09/08 01:24:14;;;;;;;0.10;0.10;;;9.60;70.60;;;;;;5074032;28;20055;-73
2021/09/08 01:26:42;;;;;;;0.10;0.10;;;9.60;70.60;;;;;;5073353;28;20033;-73
2021/09/08 01:29:09;;;;;;;0.15;0.10;;;9.60;70.60;;;;;;5055605;28;20393;-73
2021/09/08 01:31:35;;;;;;;0.00;0.00;;;9.50;70.60;;;;;;5073330;28;20416;-73
2021/09/08 01:34:01;;;;;;;0.00;0.00;;;9.50;70.60;;;;;;5073751;28;20107;-73
2021/09/08 01:36:26;;;;;;;0.10;0.10;;;9.50;70.70;;;;;;5073231;28;20028;-73
2021/09/08 01:38:52;;;;;;;0.10;0.10;;;9.50;70.70;;;;;;5055493;28;20032;-73
2021/09/08 01:41:18;;;;;;;0.10;0.10;;;9.40;71.50;;;;;;5073144;28;20021;-73
2021/09/08 01:43:46;;;;;;;0.10;0.10;;;9.40;70.90;;;;;;5073735;28;20043;-73
2021/09/08 01:46:19;;;;;;;0.10;0.10;;;9.40;71.00;;;;;;5072779;28;20481;-73
2021/09/08 01:48:45;;;;;;;0.10;0.10;;;9.40;71.00;;;;;;5073584;28;20047;-73
2021/09/08 01:51:11;;;;;;;0.10;0.10;;;9.40;71.10;;;;;;5073060;28;20529;-73
2021/09/08 01:53:36;;;;;;;0.10;0.10;;;9.40;71.30;;;;;;5073499;28;20082;-73
2021/09/08 01:56:02;;;;;;;0.00;0.00;;;9.30;71.30;;;;;;5073054;28;20024;-73
2021/09/08 01:58:28;;;;;;;0.10;0.10;;;9.30;71.40;;;;;;5073425;28;20465;-73
2021/09/08 02:00:57;;;;;;;0.10;0.10;;;9.30;71.40;;;;;;5074235;28;20478;-73
2021/09/08 02:03:22;;;;;;;0.00;0.00;;;9.30;71.60;;;;;;5072947;28;20032;-73
2021/09/08 02:05:48;;;;;;;0.00;0.00;;;9.30;71.50;;;;;;5072969;28;20028;-73
2021/09/08 02:08:14;;;;;;;0.10;0.10;;;9.30;71.50;;;;;;5073343;28;20058;-73
2021/09/08 02:10:40;;;;;;;0.03;0.03;;;9.20;71.50;;;;;;5072923;28;20077;-73
2021/09/08 02:13:06;;;;;;;0.05;0.05;;;9.20;71.50;;;;;;5055060;28;20036;-73
2021/09/08 02:15:32;;;;;;;0.05;0.05;;;9.20;71.60;;;;;;5072891;28;20020;-73
2021/09/08 02:17:58;;;;;;;0.10;0.10;;;9.20;71.70;;;;;;5073103;28;20029;-73
2021/09/08 02:20:23;;;;;;;0.10;0.10;;;9.10;71.80;;;;;;5054750;28;20039;-73
2021/09/08 02:22:49;;;;;;;0.00;0.00;;;9.10;71.90;;;;;;5073120;28;20044;-73
2021/09/08 02:25:15;;;;;;;0.03;0.03;;;9.10;72.00;;;;;;5072977;28;20036;-73
2021/09/08 02:27:40;;;;;;;0.00;0.00;;;9.20;72.10;;;;;;5054974;28;20469;-73
2021/09/08 02:30:07;;;;;;;0.10;0.10;;;9.10;72.00;;;;;;5054726;28;20107;-73
2021/09/08 02:32:32;;;;;;;0.00;0.00;;;9.10;72.10;;;;;;5072792;28;20036;-73
2021/09/08 02:34:58;;;;;;;0.05;0.05;;;9.10;72.10;;;;;;5072739;28;20070;-73
2021/09/08 02:37:24;;;;;;;0.10;0.10;;;9.10;72.10;;;;;;5072715;28;20048;-73
2021/09/08 02:39:50;;;;;;;0.10;0.10;;;9.10;72.20;;;;;;5072561;28;20401;-73
2021/09/08 02:42:16;;;;;;;0.00;0.00;;;9.00;72.30;;;;;;5072932;28;20020;-73
2021/09/08 02:44:42;;;;;;;0.10;0.10;;;9.00;72.40;;;;;;5073250;28;20017;-73
2021/09/08 02:47:08;;;;;;;0.00;0.00;;;9.00;72.60;;;;;;5072637;28;20085;-73
2021/09/08 02:49:34;;;;;;;0.03;0.03;;;8.90;72.80;;;;;;5072635;28;20385;-73
2021/09/08 02:52:00;;;;;;;0.05;0.05;;;8.90;73.00;;;;;;5072366;28;20024;-73
2021/09/08 02:54:25;;;;;;;0.00;0.00;;;8.80;73.10;;;;;;5054776;28;20029;-73
2021/09/08 02:56:51;;;;;;;0.00;0.00;;;8.80;73.20;;;;;;5072514;28;20032;-73
2021/09/08 02:59:17;;;;;;;0.00;0.00;;;8.80;73.40;;;;;;5074945;28;20075;-73
2021/09/08 03:01:42;;;;;;;0.00;0.00;;;8.70;73.50;;;;;;5058964;28;20032;-73
2021/09/08 03:04:08;;;;;;;0.00;0.00;;;8.70;73.50;;;;;;5076551;28;20056;-73
2021/09/08 03:06:34;;;;;;;0.00;0.00;;;8.70;73.70;;;;;;5075973;28;20053;-73
2021/09/08 03:08:59;;;;;;;0.10;0.10;;;8.70;74.00;;;;;;5076448;28;20033;-73
2021/09/08 03:11:26;;;;;;;0.05;0.05;;;8.70;74.00;;;;;;5076100;28;20033;-73
2021/09/08 03:13:52;;;;;;;0.00;0.00;;;8.70;74.20;;;;;;5076370;28;20028;-73
2021/09/08 03:16:18;;;;;;;0.00;0.00;;;8.70;74.60;;;;;;5075391;28;20020;-73
2021/09/08 03:18:44;;;;;;;0.00;0.00;;;8.60;74.50;;;;;;5074160;28;20031;-73
2021/09/08 03:21:10;;;;;;;0.00;0.00;;;8.60;74.60;;;;;;5074456;28;20485;-73
2021/09/08 03:23:35;;;;;;;0.00;0.00;;;8.60;74.60;;;;;;5076100;28;20032;-73
2021/09/08 03:26:01;;;;;;;0.00;0.00;;;8.60;74.80;;;;;;5075458;28;20025;-73
2021/09/08 03:28:27;;;;;;;0.00;0.00;;;8.60;74.70;;;;;;5074574;28;20128;-73
2021/09/08 03:30:52;;;;;;;0.00;0.00;;;8.60;74.80;;;;;;5055679;28;20497;-73
2021/09/08 03:33:18;;;;;;;0.10;0.10;;;8.60;75.00;;;;;;5057544;28;20035;-73
2021/09/08 03:35:44;;;;;;;0.10;0.10;;;8.60;75.00;;;;;;5075505;28;20020;-73
2021/09/08 03:38:10;;;;;;;0.00;0.00;;;8.60;75.00;;;;;;5073965;28;20098;-73
2021/09/08 03:40:36;;;;;;;0.10;0.10;;;8.60;75.40;;;;;;5075219;28;20039;-74
2021/09/08 03:43:02;;;;;;;0.10;0.10;;;8.60;75.50;;;;;;5074820;28;20025;-73
2021/09/08 03:45:28;;;;;;;0.10;0.10;;;8.60;75.40;;;;;;5075073;28;20028;-73
2021/09/08 03:47:54;;;;;;;0.00;0.00;;;8.60;75.40;;;;;;5075181;28;20497;-73
2021/09/08 03:50:19;;;;;;;0.03;0.03;;;8.60;75.40;;;;;;5075155;28;20027;-73
2021/09/08 03:52:45;;;;;;;0.10;0.10;;;8.60;75.40;;;;;;5075085;28;20488;-73
2021/09/08 03:55:11;;;;;;;0.10;0.10;;;8.60;75.50;;;;;;5057115;28;20032;-73
2021/09/08 03:57:37;;;;;;;0.00;0.00;;;8.60;75.40;;;;;;5074967;28;20040;-73
2021/09/08 04:00:05;;;;;;;0.00;0.00;;;8.70;76.00;;;;;;5074928;28;20028;-73
2021/09/08 04:02:31;;;;;;;0.00;0.00;;;8.70;75.40;;;;;;5076168;28;20056;-73
2021/09/08 04:04:58;;;;;;;0.10;0.10;;;8.80;75.30;;;;;;5056057;28;20445;-73
2021/09/08 04:07:25;;;;;;;0.03;0.03;;;8.80;75.80;;;;;;5072344;28;20451;-73
2021/09/08 04:09:50;;;;;;;0.00;0.00;;;8.90;75.10;;;;;;5054742;28;20050;-73
2021/09/08 04:12:16;;;;;;;0.10;0.10;;;8.90;75.00;;;;;;5073930;28;20024;-73
2021/09/08 04:14:42;;;;;;;0.00;0.00;;;8.90;74.90;;;;;;5072922;28;20381;-73
2021/09/08 04:17:07;;;;;;;0.00;0.00;;;9.00;74.80;;;;;;5074231;28;20057;-73
2021/09/08 04:19:33;;;;;;;0.00;0.00;;;9.10;74.70;;;;;;5074356;28;20036;-73
2021/09/08 04:21:59;;;;;;;0.00;0.00;;;9.20;74.50;;;;;;5074353;28;20465;-73
2021/09/08 04:24:24;;;;;;;0.00;0.00;;;9.20;74.30;;;;;;5054608;28;20044;-73
2021/09/08 04:26:50;;;;;;;0.05;0.05;;;9.30;74.30;;;;;;5055699;28;20021;-73
2021/09/08 04:29:16;;;;;;;0.00;0.00;;;9.30;74.20;;;;;;5074905;28;20033;-73
2021/09/08 04:31:41;;;;;;;0.00;0.00;;;9.40;74.10;;;;;;5074198;28;20465;-73
2021/09/08 04:34:08;;;;;;;0.10;0.10;;;9.50;74.10;;;;;;5074209;28;20032;-73
2021/09/08 04:36:34;;;;;;;0.10;0.10;;;9.60;74.20;;;;;;5073710;28;20023;-73
2021/09/08 04:39:00;;;;;;;0.10;0.10;;;9.80;74.30;;;;;;5072225;28;20112;-73
2021/09/08 04:41:26;;;;;;;0.00;0.00;;;9.80;74.20;;;;;;5073045;28;20461;-73
2021/09/08 04:43:52;;;;;;;0.10;0.10;;;10.00;74.40;;;;;;5074642;28;20032;-73
2021/09/08 04:46:18;;;;;;;0.10;0.10;;;10.40;74.40;;;;;;5073896;28;20103;-73
2021/09/08 04:48:44;;;;;;;0.10;0.10;;;10.90;74.20;;;;;;5073452;28;20469;-74
2021/09/08 04:51:09;;;;;;;0.10;0.10;;;11.40;73.50;;;;;;5071574;28;20025;-74
2021/09/08 04:53:35;;;;;;;0.10;0.10;;;11.80;72.80;;;;;;5073364;28;20100;-74
2021/09/08 04:56:01;;;;;;;0.10;0.10;;;12.20;72.10;;;;;;5072656;28;20040;-74
2021/09/08 04:58:26;;;;;;;0.10;0.10;;;12.60;71.00;;;;;;5072158;28;20069;-74
2021/09/08 05:00:52;;;;;;;0.10;0.10;;;13.10;70.60;;;;;;5073221;28;20494;-73
2021/09/08 05:03:18;;;;;;;0.00;0.00;;;13.70;69.60;;;;;;5074815;28;20037;-75
2021/09/08 05:05:44;;;;;;;0.10;0.10;;;14.30;69.00;;;;;;5072699;28;20469;-72
2021/09/08 05:08:10;;;;;;;0.10;0.10;;;14.90;67.70;;;;;;5071126;28;20040;-73
2021/09/08 05:10:35;;;;;;;0.10;0.10;;;15.40;66.60;;;;;;5070796;28;20056;-74
2021/09/08 05:13:01;;;;;;;0.10;0.10;;;15.90;65.40;;;;;;5071311;28;20020;-74
2021/09/08 05:15:27;;;;;;;0.10;0.10;;;16.30;64.30;;;;;;5071618;28;20025;-73
2021/09/08 05:17:53;;;;;;;0.10;0.10;;;16.60;63.70;;;;;;5070581;28;20032;-74
2021/09/08 05:20:18;;;;;;;0.10;0.10;;;16.90;62.50;;;;;;5069889;28;20024;-73
2021/09/08 05:22:44;;;;;;;0.10;0.10;;;17.20;61.80;;;;;;5068763;28;20052;-74
2021/09/08 05:25:10;;;;;;;0.10;0.10;;;17.40;60.90;;;;;;5050039;28;20025;-74
2021/09/08 05:27:38;;;;;;;0.10;0.10;;;17.70;61.10;;;;;;5069675;28;20052;-74
2021/09/08 05:30:05;;;;;;;0.03;0.03;;;18.20;59.50;;;;;;5051405;28;20028;-76
2021/09/08 05:32:31;;;;;;;0.10;0.10;;;18.40;58.30;;;;;;5069270;28;20024;-77
2021/09/08 05:34:56;;;;;;;0.10;0.10;;;18.50;57.40;;;;;;5068037;28;20019;-74
2021/09/08 05:37:23;;;;;;;0.10;0.10;;;18.60;56.10;;;;;;5068298;28;20474;-75
2021/09/08 05:39:49;;;;;;;0.10;0.10;;;18.70;56.30;;;;;;5069204;28;20115;-75
2021/09/08 05:42:15;;;;;;;0.10;0.10;;;18.80;55.10;;;;;;5050977;28;20021;-77
2021/09/08 05:44:41;;;;;;;0.10;0.10;;;18.90;54.80;;;;;;5051219;28;20068;-78
2021/09/08 05:47:07;;;;;;;0.00;0.00;;;19.10;54.50;;;;;;5054505;28;20028;-78
2021/09/08 05:49:33;;;;;;;0.08;0.08;;;19.40;54.30;;;;;;5073135;28;20032;-78
2021/09/08 05:51:59;;;;;;;0.00;0.00;;;19.70;53.70;;;;;;5072780;28;20054;-78
2021/09/08 05:54:25;;;;;;;0.00;0.00;;;20.10;53.50;;;;;;5072432;28;20036;-77
2021/09/08 05:56:50;;;;;;;0.10;0.10;;;20.60;53.10;;;;;;5069261;28;20043;-76
2021/09/08 05:59:16;;;;;;;0.00;0.00;;;21.10;51.80;;;;;;5069516;28;20128;-75
2021/09/08 06:01:42;;;;;;;0.10;0.10;;;21.40;51.50;;;;;;5055253;28;20021;-76
2021/09/08 06:04:07;;;;;;;0.00;0.00;;;21.60;50.20;;;;;;5054566;28;20438;-75
2021/09/08 06:06:33;;;;;;;0.00;0.00;;;22.00;50.50;;;;;;5071906;28;20034;-75
2021/09/08 06:08:59;;;;;;;0.00;0.00;;;22.50;49.40;;;;;;5072128;28;20529;-75
2021/09/08 06:11:25;;;;;;;0.00;0.00;;;22.80;48.00;;;;;;5052600;28;20020;-75
2021/09/08 06:13:53;;;;;;;0.00;0.00;;;22.80;47.30;;;;;;5051991;28;20032;-76
2021/09/08 06:16:20;;;;;;;0.00;0.00;;;22.70;46.50;;;;;;5050369;28;20089;-76
2021/09/08 06:18:46;;;;;;;0.00;0.00;;;22.90;46.80;;;;;;5066816;28;20028;-76
2021/09/08 06:21:13;;;;;;;0.00;0.00;;;23.10;46.10;;;;;;5047894;28;20417;-76
2021/09/08 06:23:39;;;;;;;0.00;0.00;;;23.30;45.70;;;;;;5048099;28;20040;-77
2021/09/08 06:26:05;;;;;;;0.00;0.00;;;23.40;44.50;;;;;;5048806;28;20021;-77
2021/09/08 06:28:34;;;;;;;0.00;0.00;;;23.40;44.70;;;;;;5067701;28;20031;-76
2021/09/08 06:31:00;;;;;;;0.00;0.00;;;23.70;45.20;;;;;;5070397;28;20031;-76
2021/09/08 06:33:25;;;;;;;0.00;0.00;;;23.90;43.40;;;;;;5065682;28;20039;-78
2021/09/08 06:35:52;;;;;;;0.00;0.00;;;24.00;42.80;;;;;;5053231;28;20041;-77
2021/09/08 06:38:17;;;;;;;0.00;0.00;;;23.80;42.80;;;;;;5053610;28;20029;-76
2021/09/08 06:40:43;;;;;;;0.00;0.00;;;23.80;43.00;;;;;;5074629;28;20033;-80
2021/09/08 06:43:09;;;;;;;0.00;0.00;;;24.00;43.20;;;;;;5055806;28;20040;-77
2021/09/08 06:45:35;;;;;;;0.00;0.00;;;24.00;42.10;;;;;;5052734;28;20055;-77
2021/09/08 06:48:01;;;;;;;0.00;0.00;;;24.10;42.50;;;;;;5075517;28;20159;-77
2021/09/08 06:50:27;;;;;;;0.00;0.00;;;24.20;42.20;;;;;;5056574;28;20040;-79
2021/09/08 06:52:53;;;;;;;0.00;0.00;;;24.40;42.10;;;;;;5073985;28;20041;-78
2021/09/08 06:55:19;;;;;;;0.00;0.00;;;24.50;41.80;;;;;;5055552;28;20591;-77
2021/09/08 06:57:44;;;;;;;0.00;0.00;;;24.80;42.40;;;;;;5070035;28;20037;-79
2021/09/08 07:00:11;;;;;;;0.00;0.00;;;25.30;42.30;;;;;;5053242;28;20059;-77
2021/09/08 07:02:37;;;;;;;0.00;0.00;;;25.70;41.00;;;;;;5082670;22;20044;-77
2021/09/08 07:05:03;;;;;;;0.00;0.00;;;25.80;40.90;;;;;;5076108;28;20024;-77
2021/09/08 07:07:29;;;;;;;0.00;0.00;;;26.10;40.70;;;;;;5072589;28;20040;-76
2021/09/08 07:09:55;;;;;;;0.00;0.00;;;26.10;40.30;;;;;;5074225;28;20039;-78
2021/09/08 07:12:20;;;;;;;0.00;0.00;;;26.40;40.70;;;;;;5074182;28;20456;-76
2021/09/08 07:14:46;;;;;;;0.00;0.00;;;26.40;39.10;;;;;;5071419;28;20560;-77
2021/09/08 07:17:12;;;;;;;0.00;0.00;;;25.90;39.00;;;;;;5072940;28;20063;-79
2021/09/08 07:19:38;;;;;;;0.00;0.00;;;25.90;40.30;;;;;;5055947;28;20649;-77
2021/09/08 07:22:04;;;;;;;0.00;0.00;;;26.20;40.30;;;;;;5055941;28;20032;-80
2021/09/08 07:24:30;;;;;;;0.00;0.00;;;26.60;40.60;;;;;;5058412;28;20024;-77
2021/09/08 07:26:57;;;;;;;0.00;0.00;;;26.80;39.60;;;;;;5076591;28;20103;-78
2021/09/08 07:29:24;;;;;;;0.00;0.00;;;26.10;39.10;;;;;;5056974;28;20098;-76
2021/09/08 07:31:52;;;;;;;0.00;0.00;;;25.30;39.60;;;;;;5069864;28;20441;-77
2021/09/08 07:34:18;;;;;;;0.00;0.00;;;24.80;40.30;;;;;;5072829;28;20036;-76
2021/09/08 07:36:43;;;;;;;0.00;0.00;;;24.60;40.40;;;;;;5068688;28;20044;-78
2021/09/08 07:39:09;;;;;;;0.00;0.00;;;24.40;40.70;;;;;;5070452;28;20036;-79
2021/09/08 07:41:35;;;;;;;0.00;0.00;;;24.50;40.10;;;;;;5070077;28;20131;-76
2021/09/08 07:44:01;;;;;;;0.00;0.00;;;24.50;40.30;;;;;;5067844;28;20452;-76
2021/09/08 07:46:27;;;;;;;0.00;0.00;;;24.70;40.50;;;;;;5051426;28;20020;-75
2021/09/08 07:48:53;;;;;;;0.00;0.00;;;24.90;40.60;;;;;;5070164;28;20487;-76
2021/09/08 07:51:19;;;;;;;0.00;0.00;;;25.20;40.10;;;;;;5052985;28;20496;-79
2021/09/08 07:53:44;;;;;;;0.00;0.00;;;25.40;39.10;;;;;;5053050;28;20048;-75
2021/09/08 07:56:10;;;;;;;0.00;0.00;;;25.40;39.00;;;;;;5072098;28;20080;-78
2021/09/08 07:58:36;;;;;;;0.00;0.00;;;25.60;38.80;;;;;;5074494;28;20099;-77
2021/09/08 08:01:02;;;;;;;0.00;0.00;;;25.70;38.70;;;;;;5070324;28;20040;-77
2021/09/08 08:03:28;;;;;;;0.00;0.00;;;25.90;38.30;;;;;;5051056;28;20040;-75
2021/09/08 08:05:54;;;;;;;0.00;0.00;;;26.40;38.10;;;;;;5069196;28;20389;-77
2021/09/08 08:08:20;;;;;;;0.00;0.00;;;26.80;37.80;;;;;;5070915;28;20036;-76
2021/09/08 08:10:49;;;;;;;0.00;0.00;;;27.40;37.80;;;;;;5074305;28;20070;-77
2021/09/08 08:13:16;;;;;;;0.00;0.00;;;28.00;37.80;;;;;;5053460;28;20028;-81
2021/09/08 08:15:41;;;;;;;0.00;0.00;;;28.70;37.20;;;;;;5059438;28;20020;-79
2021/09/08 08:18:08;;;;;;;0.00;0.00;;;29.20;36.60;;;;;;5076855;28;20035;-83
2021/09/08 08:20:33;;;;;;;0.10;0.10;;;29.50;36.50;;;;;;5079854;28;20114;-78
2021/09/08 08:23:02;;;;;;;0.00;0.00;;;30.00;35.90;;;;;;5060076;28;20111;-78
2021/09/08 08:25:29;;;;;;;0.10;0.10;;;30.30;35.60;;;;;;5074969;28;20024;-77
2021/09/08 08:28:01;;;;;;;0.00;0.00;;;30.60;35.70;;;;;;5074085;28;20031;-80
2021/09/08 08:30:28;;;;;;;0.00;0.00;;;30.90;35.60;;;;;;5071406;28;20056;-76
2021/09/08 08:32:54;;;;;;;0.00;0.00;;;31.70;35.70;;;;;;5048827;28;20214;-77
2021/09/08 08:35:20;;;;;;;0.00;0.00;;;32.40;34.80;;;;;;5066669;28;20105;-77
2021/09/08 08:37:48;;;;;;;0.10;0.10;;;32.70;34.50;;;;;;5067391;28;20116;-77
2021/09/08 08:40:14;;;;;;;0.10;0.10;;;32.80;33.00;;;;;;5070913;28;20071;-76
2021/09/08 08:42:40;;;;;;;0.00;0.00;;;32.30;31.70;;;;;;5066495;28;20108;-72
2021/09/08 08:45:08;;;;;;;0.05;0.05;;;31.80;31.90;;;;;;5068715;28;20030;-74
2021/09/08 08:47:35;;;;;;;0.03;0.03;;;31.50;32.60;;;;;;5052250;28;20470;-74
2021/09/08 08:50:04;;;;;;;0.00;0.00;;;31.70;32.40;;;;;;5070694;28;20044;-74
2021/09/08 08:52:30;;;;;;;0.00;0.00;;;31.40;32.00;;;;;;5052031;28;20035;-73
2021/09/08 08:54:56;;;;;;;0.10;0.10;;;31.20;32.10;;;;;;5067869;28;20365;-73
2021/09/08 08:57:22;;;;;;;0.00;0.00;;;31.20;32.00;;;;;;5067575;28;20054;-75
2021/09/08 08:59:49;;;;;;;0.00;0.00;;;31.40;33.40;;;;;;5070049;28;20040;-74
2021/09/08 09:02:24;;;;;;;0.08;0.08;;;32.10;33.50;;;;;;5084949;22;20012;-74
2021/09/08 09:04:53;;;;;;;0.00;0.00;;;32.90;32.40;;;;;;5031847;28;20120;-74
2021/09/08 09:07:24;;;;;;;0.00;0.00;;;32.60;31.60;;;;;;5032121;28;20112;-74
2021/09/08 09:09:55;;;;;;;0.00;0.00;;;32.20;31.90;;;;;;5030155;28;20041;-73
2021/09/08 09:12:25;;;;;;;0.10;0.10;;;31.70;32.10;;;;;;5050075;28;20146;-73
2021/09/08 09:14:51;;;;;;;0.10;0.10;;;31.60;32.20;;;;;;5049045;28;20041;-74
2021/09/08 09:17:18;;;;;;;0.10;0.10;;;31.40;32.40;;;;;;5031702;28;20060;-73
2021/09/08 09:19:50;;;;;;;0.00;0.00;;;31.20;32.70;;;;;;5032596;28;20112;-73
2021/09/08 09:22:18;;;;;;;0.00;0.00;;;31.20;32.40;;;;;;5049834;28;20021;-74
2021/09/08 09:24:46;;;;;;;0.00;0.00;;;31.20;32.90;;;;;;5049821;28;20096;-72
2021/09/08 09:27:13;;;;;;;0.00;0.00;;;31.40;33.00;;;;;;5031336;28;20026;-74
2021/09/08 09:29:44;;;;;;;0.08;0.08;;;32.00;33.00;;;;;;5030356;28;20397;-73
2021/09/08 09:32:11;;;;;;;0.03;0.03;;;32.70;32.60;;;;;;5031724;28;20430;-74
2021/09/08 09:34:41;;;;;;;0.10;0.10;;;33.20;32.50;;;;;;5050739;28;20021;-73
2021/09/08 09:37:08;;;;;;;0.10;0.10;;;33.80;32.30;;;;;;5048544;28;20029;-74
2021/09/08 09:39:37;;;;;;;0.03;0.03;;;34.40;32.20;;;;;;5047664;28;20025;-73
2021/09/08 09:42:06;;;;;;;0.10;0.10;;;34.60;31.30;;;;;;5048184;28;20239;-74
2021/09/08 09:44:32;;;;;;;0.00;0.00;;;34.50;31.60;;;;;;5028745;28;20394;-73
2021/09/08 09:47:00;;;;;;;0.10;0.10;;;34.50;32.10;;;;;;5044825;28;20033;-73
2021/09/08 09:49:26;;;;;;;0.10;0.10;;;35.30;32.10;;;;;;5027029;28;20144;-74
2021/09/08 09:51:56;;;;;;;0.10;0.10;;;35.80;31.80;;;;;;5045979;28;20422;-74
2021/09/08 09:54:22;;;;;;;0.10;0.10;;;35.90;31.50;;;;;;5047448;28;20029;-73
2021/09/08 09:56:48;;;;;;;0.10;0.10;;;36.10;31.60;;;;;;5049298;28;20470;-72
2021/09/08 09:59:16;;;;;;;0.08;0.08;;;36.00;30.60;;;;;;5050579;28;20079;-74
2021/09/08 10:01:42;;;;;;;0.00;0.00;;;35.80;30.90;;;;;;5031295;28;20451;-73
2021/09/08 10:04:09;;;;;;;0.10;0.10;;;35.80;31.10;;;;;;5051226;28;20470;-74
2021/09/08 10:06:36;;;;;;;0.10;0.10;;;35.90;30.80;;;;;;5050038;28;20025;-74
2021/09/08 10:09:04;;;;;;;0.00;0.00;;;35.90;30.80;;;;;;5034472;28;20025;-74
2021/09/08 10:11:33;;;;;;;0.10;0.10;;;36.00;30.70;;;;;;5038094;28;20025;-74
2021/09/08 10:14:21;;;;;;;0.10;0.10;;;36.00;30.50;;;;;;5038660;28;20021;-72
2021/09/08 10:16:48;;;;;;;0.10;0.10;;;36.20;30.50;;;;;;5055003;28;20056;-73
2021/09/08 10:19:25;;;;;;;0.05;0.05;;;36.50;30.90;;;;;;5051576;28;20072;-73
2021/09/08 10:21:53;;;;;;;0.10;0.10;;;36.70;30.00;;;;;;5051646;28;20025;-72
2021/09/08 10:24:24;;;;;;;0.10;0.10;;;36.30;30.10;;;;;;5052708;28;20489;-75
2021/09/08 10:26:50;;;;;;;0.05;0.05;;;36.00;30.30;;;;;;5034442;28;20032;-74
2021/09/08 10:29:16;;;;;;;0.10;0.10;;;35.40;29.90;;;;;;5033256;28;20120;-75
2021/09/08 10:31:50;;;;;;;0.10;0.10;;;34.90;30.10;;;;;;5033427;28;20085;-76
2021/09/08 10:34:16;;;;;;;0.10;0.10;;;34.60;30.60;;;;;;5050143;28;20028;-74
2021/09/08 10:36:44;;;;;;;0.00;0.00;;;35.00;30.70;;;;;;5051319;28;20025;-74
2021/09/08 10:39:20;;;;;;;0.10;0.10;;;35.40;30.60;;;;;;5030808;28;20021;-74
2021/09/08 10:41:47;;;;;;;0.00;0.00;;;35.50;30.30;;;;;;5031688;28;20086;-75
2021/09/08 10:44:16;;;;;;;0.08;0.08;;;35.40;30.50;;;;;;5049057;28;20194;-73
2021/09/08 10:46:53;;;;;;;0.00;0.00;;;35.50;30.50;;;;;;5051162;28;20017;-73
2021/09/08 10:49:38;;;;;;;0.10;0.10;;;36.10;30.50;;;;;;5034951;28;20033;-73
2021/09/08 10:52:33;;;;;;;0.10;0.10;;;36.80;30.00;;;;;;5053310;28;20072;-75
2021/09/08 10:54:59;;;;;;;0.10;0.10;;;37.40;29.70;;;;;;5053758;28;20029;-75
2021/09/08 10:57:44;;;;;;;0.10;0.10;;;37.60;29.70;;;;;;5055215;28;20542;-74
2021/09/08 11:00:22;;;;;;;0.08;0.08;;;37.50;29.40;;;;;;5054489;28;20031;-74
2021/09/08 11:02:48;;;;;;;0.10;0.10;;;37.70;29.60;;;;;;5038634;28;20028;-74
2021/09/08 11:05:14;;;;;;;0.10;0.10;;;38.20;29.70;;;;;;5053741;28;20029;-73
2021/09/08 11:07:45;;;;;;;0.10;0.10;;;38.80;29.40;;;;;;5053440;28;20035;-73
2021/09/08 11:10:12;;;;;;;0.10;0.10;;;39.00;29.20;;;;;;5036057;28;20398;-73
2021/09/08 11:12:50;;;;;;;0.10;0.10;;;38.90;29.30;;;;;;5051605;28;20044;-74
2021/09/08 11:15:20;;;;;;;0.10;0.10;;;38.70;29.10;;;;;;5051069;28;20037;-74
2021/09/08 11:17:53;;;;;;;0.10;0.10;;;38.50;28.60;;;;;;5053333;28;20104;-73
2021/09/08 11:20:19;;;;;;;;;;;37.90;28.80;;;;;;5033247;28;20040;-74
2021/09/08 11:23:05;;;;;;;0.00;0.00;;;37.50;29.40;;;;;;5051097;28;19931;-74
2021/09/08 11:25:34;;;;;;;0.10;0.10;;;37.60;29.50;;;;;;5048736;28;20029;-75
2021/09/08 11:28:00;;;;;;;0.10;0.10;;;37.80;29.20;;;;;;5047027;28;20027;-77
2021/09/08 11:30:37;;;;;;;0.10;0.10;;;37.70;28.80;;;;;;5046588;28;20048;-75
2021/09/08 11:33:11;;;;;;;0.10;0.10;;;37.80;28.80;;;;;;5045272;28;20066;-73
2021/09/08 11:35:43;;;;;;;0.10;0.10;;;37.50;28.60;;;;;;5044743;28;20041;-73
2021/09/08 11:38:19;;;;;;;0.10;0.10;;;36.80;28.80;;;;;;5046097;28;20022;-72
2021/09/08 11:40:48;;;;;;;0.05;0.05;;;36.30;29.20;;;;;;5048681;28;20739;-73
2021/09/08 11:43:28;;;;;;;0.00;0.00;;;36.30;29.20;;;;;;5050122;28;20462;-73
2021/09/08 11:45:54;;;;;;;0.10;0.10;;;36.30;29.50;;;;;;5050110;28;20526;-73
2021/09/08 11:48:30;;;;;;;0.10;0.10;;;36.50;29.20;;;;;;5030821;28;20054;-73
2021/09/08 11:51:05;;;;;;;0.03;0.03;;;36.80;30.50;;;;;;5029579;28;20040;-73
2021/09/08 11:53:31;;;;;;;0.10;0.10;;;37.40;29.40;;;;;;5047304;28;20024;-72
2021/09/08 11:56:24;;;;;;;0.00;0.00;;;37.40;28.90;;;;;;5046187;28;20082;-73
2021/09/08 11:58:55;;;;;;;0.10;0.10;;;36.80;28.90;;;;;;5028538;28;20295;-72
2021/09/08 12:01:22;;;;;;;0.10;0.10;;;36.80;29.40;;;;;;5049273;28;20052;-72
2021/09/08 12:03:59;;;;;;;0.00;0.00;;;37.10;29.30;;;;;;5051199;28;20031;-73
2021/09/08 12:06:26;;;;;;;0.10;0.10;;;37.30;29.20;;;;;;5051666;28;20032;-73
2021/09/08 12:08:57;;;;;;;0.10;0.10;;;37.60;29.20;;;;;;5047873;28;20051;-74
2021/09/08 12:11:46;;;;;;;0.10;0.10;;;37.60;28.70;;;;;;5049025;28;20029;-72
2021/09/08 12:14:31;;;;;;;0.10;0.10;;;37.00;28.40;;;;;;5047328;28;20288;-72
2021/09/08 12:17:07;;;;;;;0.00;0.00;;;37.10;29.50;;;;;;5048488;28;20021;-74
2021/09/08 12:19:35;;;;;;;0.10;0.10;;;37.60;29.30;;;;;;5049755;28;20025;-74
2021/09/08 12:22:15;;;;;;;0.03;0.03;;;38.20;29.00;;;;;;5050264;28;20056;-75
2021/09/08 12:24:55;;;;;;;0.10;0.10;;;38.30;28.90;;;;;;5032195;28;20033;-77
2021/09/08 12:27:40;;;;;;;0.00;0.00;;;38.10;28.80;;;;;;5051231;28;20397;-74
2021/09/08 12:30:18;;;;;;;0.10;0.10;;;38.40;28.60;;;;;;5052922;28;20415;-75
2021/09/08 12:32:50;;;;;;;0.10;0.10;;;38.80;28.90;;;;;;5048871;28;20039;-75
2021/09/08 12:35:47;;;;;;;0.00;0.00;;;39.20;29.00;;;;;;5032127;28;20302;-74
2021/09/08 12:38:39;;;;;;;0.10;0.10;;;39.30;28.90;;;;;;5051119;28;20040;-77
2021/09/08 12:41:04;;;;;;;0.10;0.10;;;38.70;28.80;;;;;;5033672;28;20039;-74
2021/09/08 12:43:30;;;;;;;0.00;0.00;;;38.40;28.90;;;;;;5051428;28;20017;-74
2021/09/08 12:45:56;;;;;;;0.10;0.10;;;38.30;29.20;;;;;;5052390;28;20039;-74
2021/09/08 12:48:25;;;;;;;0.10;0.10;;;38.30;29.40;;;;;;5054084;28;20079;-74
2021/09/08 12:50:51;;;;;;;0.03;0.03;;;38.80;29.50;;;;;;5054376;28;20041;-74
2021/09/08 12:53:17;;;;;;;0.00;0.00;;;38.80;28.60;;;;;;5053941;28;20369;-74